createdAt,value
2018-02-20T00:02:21.036Z,67.90
2018-02-20T00:04:48.615Z,67.90
2018-02-20T00:07:17.128Z,67.90
2018-02-20T00:09:45.478Z,67.90
2018-02-20T00:12:13.049Z,67.90
2018-02-20T00:14:40.691Z,67.70
2018-02-20T00:17:08.283Z,67.70
2018-02-20T00:19:36.052Z,67.90
2018-02-20T00:22:03.728Z,67.80
2018-02-20T00:24:32.082Z,67.90
2018-02-20T00:26:59.651Z,67.90
2018-02-20T00:29:27.659Z,68.60
2018-02-20T00:31:55.303Z,67.80
2018-02-20T00:34:23.681Z,67.90
2018-02-20T00:36:52.908Z,67.90
2018-02-20T00:39:21.458Z,67.90
2018-02-20T00:41:49.832Z,67.80
2018-02-20T00:44:17.724Z,67.90
2018-02-20T00:46:46.068Z,67.90
2018-02-20T00:49:13.653Z,67.90
2018-02-20T00:51:42.006Z,67.80
2018-02-20T00:54:09.647Z,67.80
2018-02-20T00:56:37.213Z,67.80
2018-02-20T00:59:04.842Z,67.80
2018-02-20T01:01:32.480Z,67.80
2018-02-20T01:04:00.090Z,67.90
2018-02-20T01:06:27.670Z,67.80
2018-02-20T01:08:55.267Z,67.80
2018-02-20T01:11:23.619Z,67.80
2018-02-20T01:13:51.204Z,67.90
2018-02-20T01:16:20.811Z,67.90
2018-02-20T01:18:48.454Z,67.90
2018-02-20T01:21:16.140Z,67.90
2018-02-20T01:23:45.036Z,67.80
2018-02-20T01:26:12.687Z,67.80
2018-02-20T01:28:41.097Z,67.80
2018-02-20T01:31:08.678Z,67.80
2018-02-20T01:33:36.263Z,67.90
2018-02-20T01:36:03.848Z,67.80
2018-02-20T01:38:32.197Z,67.80
2018-02-20T01:40:59.808Z,67.80
2018-02-20T01:43:27.391Z,67.80
2018-02-20T01:45:55.005Z,67.80
2018-02-20T01:48:23.392Z,67.80
2018-02-20T01:51:03.510Z,67.80
2018-02-20T01:53:31.201Z,67.80
2018-02-20T01:55:58.877Z,67.80
2018-02-20T01:58:26.484Z,67.80
2018-02-20T02:00:54.117Z,68.60
2018-02-20T02:03:21.753Z,67.80
2018-02-20T02:05:50.227Z,67.90
2018-02-20T02:08:17.829Z,67.90
2018-02-20T02:10:45.466Z,67.90
2018-02-20T02:13:13.944Z,67.90
2018-02-20T02:15:42.317Z,67.80
2018-02-20T02:18:10.107Z,68.60
2018-02-20T02:20:38.502Z,67.90
2018-02-20T02:23:06.145Z,67.80
2018-02-20T02:25:34.493Z,67.90
2018-02-20T02:28:03.158Z,67.80
2018-02-20T02:30:30.744Z,67.90
2018-02-20T02:32:58.366Z,67.80
2018-02-20T02:35:25.953Z,67.80
2018-02-20T02:37:53.639Z,67.90
2018-02-20T02:40:21.999Z,68.60
2018-02-20T02:42:50.625Z,67.90
2018-02-20T02:45:19.456Z,67.90
2018-02-20T02:47:47.055Z,67.90
2018-02-20T02:50:15.679Z,67.80
2018-02-20T02:52:43.341Z,67.80
2018-02-20T02:55:10.915Z,67.90
2018-02-20T02:57:38.534Z,67.90
2018-02-20T03:00:06.893Z,67.90
2018-02-20T03:02:34.469Z,67.80
2018-02-20T03:05:02.864Z,68.00
2018-02-20T03:07:31.202Z,67.90
2018-02-20T03:09:59.113Z,67.80
2018-02-20T03:12:26.742Z,67.90
2018-02-20T03:14:54.643Z,67.70
2018-02-20T03:17:22.296Z,67.70
2018-02-20T03:19:51.709Z,67.70
2018-02-20T03:22:20.054Z,67.80
2018-02-20T03:24:48.680Z,67.80
2018-02-20T03:27:16.267Z,67.80
2018-02-20T03:29:43.890Z,67.80
2018-02-20T03:32:11.542Z,67.70
2018-02-20T03:34:39.934Z,67.90
2018-02-20T03:37:07.605Z,67.80
2018-02-20T03:39:35.279Z,67.80
2018-02-20T03:42:03.129Z,67.80
2018-02-20T03:44:31.477Z,67.80
2018-02-20T03:46:59.074Z,67.80
2018-02-20T03:49:27.422Z,67.90
2018-02-20T03:51:55.800Z,68.60
2018-02-20T03:54:23.407Z,68.90
2018-02-20T03:56:50.999Z,67.90
2018-02-20T03:59:18.598Z,67.80
2018-02-20T04:01:47.079Z,67.90
2018-02-20T04:04:15.507Z,69.60
2018-02-20T04:06:43.147Z,67.90
2018-02-20T04:09:10.714Z,68.90
2018-02-20T04:11:38.302Z,67.90
2018-02-20T04:14:06.233Z,68.90
2018-02-20T04:16:33.967Z,68.80
2018-02-20T04:19:01.725Z,68.90
2018-02-20T04:21:29.424Z,68.80
2018-02-20T04:23:57.120Z,68.90
2018-02-20T04:26:24.691Z,68.90
2018-02-20T04:28:52.401Z,68.90
2018-02-20T04:31:22.066Z,69.00
2018-02-20T04:33:50.877Z,69.00
2018-02-20T04:36:18.477Z,68.90
2018-02-20T04:38:46.114Z,68.90
2018-02-20T04:41:13.802Z,68.90
2018-02-20T04:43:41.380Z,69.70
2018-02-20T04:46:09.031Z,68.90
2018-02-20T04:48:36.673Z,68.90
2018-02-20T04:51:05.059Z,68.90
2018-02-20T04:53:33.402Z,69.00
2018-02-20T04:56:00.989Z,69.00
2018-02-20T04:58:29.417Z,69.00
2018-02-20T05:00:56.990Z,69.00
2018-02-20T05:03:24.702Z,69.00
2018-02-20T05:05:53.157Z,68.90
2018-02-20T05:08:21.867Z,68.90
2018-02-20T05:10:51.222Z,68.90
2018-02-20T05:13:19.456Z,68.90
2018-02-20T05:15:47.800Z,68.90
2018-02-20T05:18:15.385Z,68.90
2018-02-20T05:20:43.755Z,68.90
2018-02-20T05:23:11.527Z,68.90
2018-02-20T05:25:39.886Z,68.90
2018-02-20T05:28:07.467Z,68.90
2018-02-20T05:30:35.808Z,68.90
2018-02-20T05:33:03.381Z,68.90
2018-02-20T05:35:30.969Z,68.90
2018-02-20T05:37:59.668Z,68.90
2018-02-20T05:40:28.009Z,68.90
2018-02-20T05:42:55.800Z,69.70
2018-02-20T05:45:24.183Z,68.90
2018-02-20T05:47:52.561Z,68.90
2018-02-20T05:50:21.179Z,69.00
2018-02-20T05:52:49.566Z,69.00
2018-02-20T05:55:17.147Z,68.90
2018-02-20T05:57:44.747Z,68.90
2018-02-20T06:00:13.160Z,69.00
2018-02-20T06:02:40.784Z,69.60
2018-02-20T06:05:09.169Z,69.00
2018-02-20T06:07:37.650Z,69.00
2018-02-20T06:10:06.111Z,68.90
2018-02-20T06:12:33.691Z,69.00
2018-02-20T06:15:02.031Z,68.90
2018-02-20T06:17:29.670Z,68.90
2018-02-20T06:19:57.250Z,68.90
2018-02-20T06:22:24.818Z,68.80
2018-02-20T06:24:52.424Z,68.90
2018-02-20T06:27:21.940Z,68.80
2018-02-20T06:29:50.986Z,68.80
2018-02-20T06:32:18.580Z,68.90
2018-02-20T06:34:46.938Z,68.80
2018-02-20T06:37:14.527Z,68.90
2018-02-20T06:39:42.159Z,68.80
2018-02-20T06:42:09.812Z,68.80
2018-02-20T06:44:37.420Z,68.90
2018-02-20T06:47:05.061Z,68.80
2018-02-20T06:49:33.494Z,68.80
2018-02-20T06:52:01.104Z,68.80
2018-02-20T06:54:29.472Z,69.10
2018-02-20T06:56:57.039Z,68.80
2018-02-20T06:59:24.617Z,68.90
2018-02-20T07:01:53.024Z,68.80
2018-02-20T07:04:22.100Z,68.80
2018-02-20T07:06:51.809Z,68.80
2018-02-20T07:09:21.471Z,68.80
2018-02-20T07:11:49.594Z,68.80
2018-02-20T07:14:17.934Z,68.80
2018-02-20T07:16:46.337Z,68.80
2018-02-20T07:19:13.948Z,68.80
2018-02-20T07:21:41.568Z,68.80
2018-02-20T07:24:09.946Z,68.80
2018-02-20T07:26:37.601Z,68.80
2018-02-20T07:29:05.962Z,68.80
2018-02-20T07:31:34.739Z,69.70
2018-02-20T07:34:02.337Z,68.70
2018-02-20T07:36:30.753Z,68.70
2018-02-20T07:38:58.375Z,68.70
2018-02-20T07:41:26.759Z,68.80
2018-02-20T07:43:55.215Z,68.80
2018-02-20T07:46:22.788Z,68.70
2018-02-20T07:48:51.687Z,68.70
2018-02-20T07:51:21.515Z,68.70
2018-02-20T07:53:50.414Z,68.70
2018-02-20T07:56:18.059Z,68.70
2018-02-20T07:58:46.526Z,68.70
2018-02-20T08:01:14.114Z,68.70
2018-02-20T08:03:42.486Z,68.70
2018-02-20T08:06:10.152Z,68.70
2018-02-20T08:08:38.486Z,68.80
2018-02-20T08:11:06.039Z,68.70
2018-02-20T08:13:33.660Z,68.70
2018-02-20T08:16:01.499Z,68.70
2018-02-20T08:18:29.136Z,68.70
2018-02-20T08:20:56.749Z,68.70
2018-02-20T08:23:25.328Z,68.60
2018-02-20T08:25:52.937Z,68.60
2018-02-20T08:28:21.577Z,68.70
2018-02-20T08:30:49.915Z,68.70
2018-02-20T08:33:17.500Z,68.60
2018-02-20T08:35:45.841Z,69.40
2018-02-20T08:38:13.404Z,68.60
2018-02-20T08:40:41.125Z,68.60
2018-02-20T08:43:08.763Z,68.60
2018-02-20T08:45:36.339Z,68.60
2018-02-20T08:48:04.775Z,68.60
2018-02-20T08:50:32.428Z,68.70
2018-02-20T08:53:00.458Z,68.60
2018-02-20T08:55:28.120Z,68.70
2018-02-20T08:57:55.688Z,68.70
2018-02-20T09:00:23.301Z,68.60
2018-02-20T09:02:51.821Z,68.60
2018-02-20T09:05:19.461Z,68.60
2018-02-20T09:07:47.066Z,68.60
2018-02-20T09:10:14.724Z,68.60
2018-02-20T09:12:42.361Z,68.70
2018-02-20T09:15:10.192Z,68.60
2018-02-20T09:17:37.771Z,68.60
2018-02-20T09:20:05.370Z,68.60
2018-02-20T09:22:33.010Z,68.60
2018-02-20T09:25:00.792Z,68.60
2018-02-20T09:27:28.377Z,68.50
2018-02-20T09:29:55.958Z,68.60
2018-02-20T09:32:23.607Z,68.60
2018-02-20T09:34:51.210Z,68.60
2018-02-20T09:37:19.447Z,68.60
2018-02-20T09:39:47.076Z,68.60
2018-02-20T09:42:14.660Z,68.60
2018-02-20T09:44:42.399Z,69.40
2018-02-20T09:47:09.976Z,68.60
2018-02-20T09:49:37.543Z,68.60
2018-02-20T09:52:05.470Z,68.60
2018-02-20T09:54:33.870Z,69.40
2018-02-20T09:57:01.522Z,68.60
2018-02-20T09:59:29.874Z,68.60
2018-02-20T10:01:57.441Z,68.60
2018-02-20T10:04:25.048Z,68.60
2018-02-20T10:06:52.681Z,68.60
2018-02-20T10:09:21.994Z,68.60
2018-02-20T10:11:51.654Z,68.60
2018-02-20T10:14:20.267Z,68.60
2018-02-20T10:16:47.863Z,68.50
2018-02-20T10:19:15.518Z,69.40
2018-02-20T10:21:43.854Z,68.60
2018-02-20T10:24:11.455Z,68.50
2018-02-20T10:26:39.796Z,68.50
2018-02-20T10:29:07.385Z,68.60
2018-02-20T10:31:34.978Z,68.50
2018-02-20T10:34:02.559Z,68.50
2018-02-20T10:36:30.350Z,68.50
2018-02-20T10:38:57.963Z,68.50
2018-02-20T10:41:25.537Z,68.50
2018-02-20T10:43:53.146Z,68.50
2018-02-20T10:46:21.502Z,69.40
2018-02-20T10:48:49.619Z,68.50
2018-02-20T10:51:17.241Z,68.50
2018-02-20T10:53:44.947Z,68.50
2018-02-20T10:56:13.017Z,68.50
2018-02-20T10:58:41.395Z,68.40
2018-02-20T11:01:09.749Z,68.40
2018-02-20T11:03:37.541Z,68.50
2018-02-20T11:06:05.231Z,68.50
2018-02-20T11:08:32.821Z,68.40
2018-02-20T11:11:00.450Z,68.50
2018-02-20T11:13:28.066Z,68.40
2018-02-20T11:15:56.456Z,68.40
2018-02-20T11:18:24.828Z,68.50
2018-02-20T11:20:52.446Z,68.40
2018-02-20T11:23:20.084Z,68.80
2018-02-20T11:25:47.740Z,68.40
2018-02-20T11:28:15.395Z,68.40
2018-02-20T11:30:43.369Z,68.40
2018-02-20T11:33:11.389Z,68.30
2018-02-20T11:35:38.977Z,68.40
2018-02-20T11:38:06.694Z,68.40
2018-02-20T11:40:34.306Z,68.40
2018-02-20T11:43:02.703Z,68.30
2018-02-20T11:45:31.111Z,68.30
2018-02-20T11:47:58.699Z,68.30
2018-02-20T11:50:26.399Z,68.30
2018-02-20T11:52:54.755Z,68.40
2018-02-20T11:55:23.136Z,68.30
2018-02-20T11:57:51.514Z,67.20
2018-02-20T12:00:21.782Z,68.30
2018-02-20T12:02:50.503Z,68.30
2018-02-20T12:05:18.128Z,68.20
2018-02-20T12:07:45.797Z,68.20
2018-02-20T12:10:13.370Z,68.20
2018-02-20T12:12:40.951Z,68.20
2018-02-20T12:15:08.531Z,68.20
2018-02-20T12:17:36.937Z,68.30
2018-02-20T12:20:05.328Z,67.20
2018-02-20T12:22:32.975Z,68.20
2018-02-20T12:25:01.353Z,67.20
2018-02-20T12:27:29.728Z,67.20
2018-02-20T12:29:57.333Z,67.20
2018-02-20T12:32:24.991Z,67.20
2018-02-20T12:34:52.566Z,67.10
2018-02-20T12:37:21.159Z,67.10
2018-02-20T12:39:49.365Z,67.10
2018-02-20T12:42:16.973Z,67.10
2018-02-20T12:44:44.575Z,67.10
2018-02-20T12:47:12.278Z,67.10
2018-02-20T12:49:39.945Z,67.10
2018-02-20T12:52:07.563Z,67.10
2018-02-20T12:54:35.277Z,67.10
2018-02-20T12:57:02.883Z,67.10
2018-02-20T12:59:30.498Z,67.10
2018-02-20T13:01:58.087Z,67.10
2018-02-20T13:04:25.699Z,67.10
2018-02-20T13:06:54.198Z,67.10
2018-02-20T13:09:21.916Z,67.10
2018-02-20T13:11:50.841Z,67.10
2018-02-20T13:14:20.262Z,67.20
2018-02-20T13:16:47.915Z,67.10
2018-02-20T13:19:16.319Z,67.20
2018-02-20T13:21:43.922Z,67.10
2018-02-20T13:24:11.546Z,67.20
2018-02-20T13:26:39.153Z,67.90
2018-02-20T13:29:06.841Z,67.10
2018-02-20T13:31:35.255Z,67.20
2018-02-20T13:34:02.948Z,67.20
2018-02-20T13:36:30.522Z,67.20
2018-02-20T13:38:58.210Z,67.20
2018-02-20T13:41:25.899Z,67.20
2018-02-20T13:43:53.550Z,67.20
2018-02-20T13:46:21.141Z,67.20
2018-02-20T13:48:49.484Z,67.30
2018-02-20T13:51:17.067Z,67.20
2018-02-20T13:53:44.802Z,67.30
2018-02-20T13:56:13.182Z,67.30
2018-02-20T13:58:40.930Z,67.30
2018-02-20T14:01:08.599Z,67.30
2018-02-20T14:03:36.291Z,67.30
2018-02-20T14:06:03.895Z,67.30
2018-02-20T14:08:31.476Z,67.30
2018-02-20T14:10:59.833Z,67.40
2018-02-20T14:13:27.851Z,67.30
2018-02-20T14:15:56.232Z,67.30
2018-02-20T14:18:23.995Z,68.40
2018-02-20T14:20:51.582Z,67.30
2018-02-20T14:23:20.220Z,67.30
2018-02-20T14:25:47.841Z,67.30
2018-02-20T14:28:15.452Z,67.40
2018-02-20T14:30:43.851Z,67.40
2018-02-20T14:33:11.509Z,67.40
2018-02-20T14:35:39.114Z,67.30
2018-02-20T14:38:06.701Z,67.30
2018-02-20T14:40:34.394Z,67.40
2018-02-20T14:43:02.769Z,68.40
2018-02-20T14:45:31.127Z,68.50
2018-02-20T14:47:59.226Z,68.50
2018-02-20T14:50:26.931Z,68.50
2018-02-20T14:52:54.551Z,68.50
2018-02-20T14:55:22.882Z,68.50
2018-02-20T14:57:51.457Z,68.50
2018-02-20T15:00:19.487Z,68.50
2018-02-20T15:02:48.490Z,68.50
2018-02-20T15:05:16.164Z,68.50
2018-02-20T15:07:43.809Z,68.50
2018-02-20T15:10:11.571Z,68.60
2018-02-20T15:12:39.192Z,68.60
2018-02-20T15:15:06.779Z,68.60
2018-02-20T15:17:35.155Z,68.70
2018-02-20T15:20:03.542Z,68.70
2018-02-20T15:22:31.132Z,68.70
2018-02-20T15:24:58.770Z,68.70
2018-02-20T15:27:27.118Z,68.70
2018-02-20T15:29:54.713Z,68.70
2018-02-20T15:32:23.047Z,68.70
2018-02-20T15:34:51.948Z,68.70
2018-02-20T15:37:19.623Z,68.70
2018-02-20T15:39:48.338Z,68.70
2018-02-20T15:42:16.790Z,68.70
2018-02-20T15:44:44.480Z,68.70
2018-02-20T15:47:12.879Z,68.80
2018-02-20T15:49:40.516Z,68.60
2018-02-20T15:52:09.467Z,68.70
2018-02-20T15:54:37.054Z,68.70
2018-02-20T15:57:05.057Z,68.80
2018-02-20T15:59:32.695Z,69.50
2018-02-20T16:02:01.399Z,68.70
2018-02-20T16:04:29.292Z,68.70
2018-02-20T16:06:57.067Z,68.70
2018-02-20T16:09:24.751Z,68.80
2018-02-20T16:11:52.409Z,68.70
2018-02-20T16:14:20.825Z,68.70
2018-02-20T16:16:57.407Z,69.80
2018-02-20T16:19:25.680Z,68.80
2018-02-20T16:21:54.032Z,68.80
2018-02-20T16:24:21.664Z,68.80
2018-02-20T16:26:50.410Z,68.80
2018-02-20T16:29:18.977Z,68.80
2018-02-20T16:31:46.766Z,68.80
2018-02-20T16:34:14.420Z,69.60
2018-02-20T16:36:43.163Z,68.80
2018-02-20T16:39:12.101Z,68.80
2018-02-20T16:41:40.622Z,68.80
2018-02-20T16:44:08.240Z,68.80
2018-02-20T16:46:36.841Z,68.90
2018-02-20T16:49:04.501Z,68.70
2018-02-20T16:51:32.111Z,68.80
2018-02-20T16:54:00.151Z,68.80
2018-02-20T16:56:27.797Z,69.20
2018-02-20T16:58:56.172Z,68.90
2018-02-20T17:01:24.100Z,68.90
2018-02-20T17:03:51.838Z,68.80
2018-02-20T17:06:20.257Z,68.80
2018-02-20T17:08:47.968Z,68.80
2018-02-20T17:11:15.633Z,68.80
2018-02-20T17:13:43.413Z,68.80
2018-02-20T17:16:11.130Z,68.80
2018-02-20T17:18:39.492Z,68.80
2018-02-20T17:21:07.172Z,68.80
2018-02-20T17:23:34.816Z,68.80
2018-02-20T17:26:02.606Z,68.80
2018-02-20T17:28:30.970Z,64.10
2018-02-20T17:30:58.815Z,64.00
2018-02-20T17:33:26.524Z,62.20
2018-02-20T17:35:55.420Z,60.40
2018-02-20T17:38:23.197Z,60.40
2018-02-20T17:40:51.249Z,60.00
2018-02-20T17:43:19.043Z,59.30
2018-02-20T17:45:46.720Z,59.20
2018-02-20T17:48:14.394Z,58.90
2018-02-20T17:50:42.117Z,58.60
2018-02-20T17:53:09.924Z,58.30
2018-02-20T17:55:38.449Z,58.00
2018-02-20T17:58:06.884Z,58.10
2018-02-20T18:00:34.647Z,58.10
2018-02-20T18:03:02.300Z,57.80
2018-02-20T18:05:30.943Z,57.50
2018-02-20T18:07:59.291Z,57.30
2018-02-20T18:10:26.988Z,57.20
2018-02-20T18:12:55.453Z,57.30
2018-02-20T18:15:24.192Z,57.30
2018-02-20T18:17:52.029Z,57.30
2018-02-20T18:20:20.707Z,57.10
2018-02-20T18:22:49.614Z,57.20
2018-02-20T18:25:17.485Z,57.10
2018-02-20T18:27:45.080Z,57.20
2018-02-20T18:30:12.912Z,57.00
2018-02-20T18:32:40.674Z,57.10
2018-02-20T18:35:08.360Z,57.00
2018-02-20T18:37:36.005Z,56.80
2018-02-20T18:40:03.687Z,56.90
2018-02-20T18:42:31.362Z,56.90
2018-02-20T18:44:59.124Z,56.90
2018-02-20T18:47:27.071Z,56.80
2018-02-20T18:49:54.947Z,57.10
2018-02-20T18:52:22.709Z,56.90
2018-02-20T18:54:51.411Z,56.80
2018-02-20T18:57:19.563Z,56.80
2018-02-20T18:59:47.212Z,56.90
2018-02-20T19:02:15.552Z,56.90
2018-02-20T19:04:43.140Z,56.90
2018-02-20T19:07:11.530Z,57.30
2018-02-20T19:09:39.912Z,56.90
2018-02-20T19:12:08.285Z,56.80
2018-02-20T19:14:35.874Z,56.80
2018-02-20T19:17:03.463Z,56.90
2018-02-20T19:19:31.069Z,57.00
2018-02-20T19:21:59.429Z,57.10
2018-02-20T19:26:14.293Z,56.90
2018-02-20T19:28:42.701Z,57.30
2018-02-20T19:31:10.295Z,57.30
2018-02-20T19:33:38.965Z,58.20
2018-02-20T19:36:06.578Z,58.90
2018-02-20T19:38:34.185Z,59.60
2018-02-20T19:41:01.783Z,60.30
2018-02-20T19:43:29.391Z,61.00
2018-02-20T19:45:57.154Z,61.70
2018-02-20T19:48:24.877Z,61.80
2018-02-20T19:50:52.453Z,62.90
2018-02-20T19:53:20.987Z,63.30
2018-02-20T19:55:50.520Z,64.10
2018-02-20T19:58:18.137Z,64.10
2018-02-20T20:00:46.519Z,64.70
2018-02-20T20:03:14.862Z,65.00
2018-02-20T20:05:42.436Z,64.90
2018-02-20T20:08:10.013Z,65.30
2018-02-20T20:10:37.586Z,65.50
2018-02-20T20:13:05.986Z,65.90
2018-02-20T20:15:33.577Z,65.90
2018-02-20T20:18:01.240Z,66.10
2018-02-20T20:20:36.907Z,66.20
2018-02-20T20:22:56.881Z,66.40
2018-02-20T20:25:24.480Z,66.50
2018-02-20T20:27:52.839Z,66.70
2018-02-20T20:30:21.345Z,66.70
2018-02-20T20:32:50.712Z,66.80
2018-02-20T20:35:18.308Z,66.80
2018-02-20T20:37:46.780Z,67.00
2018-02-20T20:40:14.382Z,67.00
2018-02-20T20:42:42.021Z,67.10
2018-02-20T20:45:10.396Z,67.20
2018-02-20T20:47:38.749Z,67.30
2018-02-20T20:50:06.342Z,67.20
2018-02-20T20:52:34.677Z,67.20
2018-02-20T20:55:02.270Z,67.30
2018-02-20T20:57:30.608Z,68.10
2018-02-20T20:59:58.172Z,67.20
2018-02-20T21:02:25.769Z,67.40
2018-02-20T21:04:54.161Z,67.40
2018-02-20T21:07:22.572Z,67.40
2018-02-20T21:09:51.123Z,67.40
2018-02-20T21:12:20.813Z,67.50
2018-02-20T21:14:48.507Z,67.50
2018-02-20T21:17:16.475Z,67.50
2018-02-20T21:19:44.127Z,67.40
2018-02-20T21:22:12.505Z,67.40
2018-02-20T21:24:40.843Z,67.50
2018-02-20T21:27:08.452Z,67.50
2018-02-20T21:29:36.924Z,67.60
2018-02-20T21:32:05.269Z,67.50
2018-02-20T21:34:32.861Z,67.50
2018-02-20T21:37:01.245Z,67.50
2018-02-20T21:39:29.617Z,67.60
2018-02-20T21:41:57.284Z,67.50
2018-02-20T21:44:25.664Z,67.60
2018-02-20T21:46:54.020Z,67.60
2018-02-20T21:49:21.597Z,67.50
2018-02-20T21:51:50.386Z,67.60
2018-02-20T21:54:18.597Z,67.50
2018-02-20T21:56:46.240Z,67.50
2018-02-20T21:59:14.613Z,67.60
2018-02-20T22:01:43.031Z,67.60
2018-02-20T22:04:10.718Z,67.60
2018-02-20T22:06:38.327Z,67.50
2018-02-20T22:09:06.777Z,67.60
2018-02-20T22:11:34.574Z,67.60
2018-02-20T22:14:02.224Z,67.60
2018-02-20T22:16:30.652Z,68.40
2018-02-20T22:18:58.452Z,67.60
2018-02-20T22:21:26.046Z,67.60
2018-02-20T22:23:54.406Z,67.60
2018-02-20T22:26:22.072Z,67.60
2018-02-20T22:28:51.787Z,67.70
2018-02-20T22:31:21.241Z,67.70
2018-02-20T22:33:49.586Z,68.50
2018-02-20T22:36:17.925Z,67.70
2018-02-20T22:38:45.505Z,67.70
2018-02-20T22:41:13.160Z,67.70
2018-02-20T22:43:40.978Z,68.00
2018-02-20T22:46:08.578Z,67.60
2018-02-20T22:48:36.426Z,67.60
2018-02-20T22:51:04.798Z,68.00
2018-02-20T22:53:32.375Z,67.70
2018-02-20T22:56:00.599Z,67.70
2018-02-20T22:58:28.255Z,67.60
2018-02-20T23:00:56.632Z,67.70
2018-02-20T23:03:24.976Z,67.70
2018-02-20T23:05:52.559Z,67.70
2018-02-20T23:08:21.426Z,67.70
2018-02-20T23:10:49.544Z,68.60
2018-02-20T23:13:17.904Z,67.70
2018-02-20T23:15:45.571Z,67.70
2018-02-20T23:18:13.957Z,68.80
2018-02-20T23:20:42.337Z,67.70
2018-02-20T23:23:10.830Z,68.80
2018-02-20T23:25:38.475Z,68.80
2018-02-20T23:28:06.230Z,68.80
2018-02-20T23:30:33.810Z,68.80
2018-02-20T23:33:02.152Z,68.80
2018-02-20T23:35:29.721Z,68.80
2018-02-20T23:37:57.325Z,68.80
2018-02-20T23:40:24.896Z,68.80
2018-02-20T23:42:52.462Z,68.80
2018-02-20T23:45:20.131Z,68.80
2018-02-20T23:47:47.689Z,68.80
2018-02-20T23:50:15.312Z,68.80
2018-02-20T23:52:43.688Z,68.90
2018-02-20T23:55:12.059Z,68.80
2018-02-20T23:57:39.792Z,68.80
